Time;durP1;ratioP1;P1;durP2;ratioP2;P2;SDS_P1;SDS_P2;PMS_P1;PMS_P2;Temp;Humidity;BMP_temperature;BMP_pressure;BME280_temperature;BME280_humidity;BME280_pressure;Samples;Min_cycle;Max_cycle;Signal;HPM_P1;HPM_P2
2023/06/02 00:01:09;;;;;;;4.60;2.00;;;14.90;1.00;;;;;;5100555;28;20039;-65
2023/06/02 00:03:37;;;;;;;6.07;2.28;;;14.90;1.00;;;;;;5100325;28;20043;-65
2023/06/02 00:06:05;;;;;;;7.50;2.63;;;14.80;1.00;;;;;;5100291;28;20307;-65
2023/06/02 00:08:32;;;;;;;4.47;2.10;;;14.70;1.00;;;;;;5099759;28;20039;-65
2023/06/02 00:11:00;;;;;;;8.35;2.20;;;14.70;1.00;;;;;;5099513;28;20028;-65
2023/06/02 00:13:27;;;;;;;7.75;2.00;;;14.70;1.00;;;;;;5099759;28;20465;-65
2023/06/02 00:15:53;;;;;;;4.28;2.15;;;14.60;1.00;;;;;;5100114;28;20039;-64
2023/06/02 00:18:25;;;;;;;6.38;2.50;;;14.60;1.00;;;;;;5100003;28;20058;-64
2023/06/02 00:20:51;;;;;;;6.85;1.80;;;14.70;1.00;;;;;;5099379;28;20396;-64
2023/06/02 00:23:21;;;;;;;6.50;2.30;;;14.70;1.00;;;;;;5099985;28;20035;-64
2023/06/02 00:25:47;;;;;;;6.22;2.17;;;14.80;1.00;;;;;;5082986;28;20079;-64
2023/06/02 00:28:13;;;;;;;5.50;2.65;;;14.70;1.00;;;;;;5082525;28;20320;-64
2023/06/02 00:30:39;;;;;;;9.15;2.63;;;14.50;1.00;;;;;;5100283;28;20024;-64
2023/06/02 00:33:05;;;;;;;5.85;2.25;;;14.30;1.00;;;;;;5082133;28;20024;-64
2023/06/02 00:35:30;;;;;;;4.50;2.45;;;14.40;1.00;;;;;;5099029;28;20040;-64
2023/06/02 00:37:57;;;;;;;9.77;2.70;;;14.50;1.00;;;;;;5099749;28;20048;-64
2023/06/02 00:40:23;;;;;;;6.97;2.45;;;14.70;1.00;;;;;;5082023;28;20067;-64
2023/06/02 00:42:49;;;;;;;4.78;2.50;;;14.70;1.00;;;;;;5099073;28;20044;-64
2023/06/02 00:45:16;;;;;;;8.25;2.50;;;14.70;1.00;;;;;;5099511;28;20279;-65
2023/06/02 00:47:42;;;;;;;6.03;3.05;;;14.60;1.00;;;;;;5098572;28;20056;-64
2023/06/02 00:50:08;;;;;;;6.43;2.60;;;14.70;1.00;;;;;;5098660;28;20083;-64
2023/06/02 00:52:34;;;;;;;7.07;2.42;;;14.70;1.00;;;;;;5081796;28;20111;-64
2023/06/02 00:55:04;;;;;;;5.35;2.25;;;14.80;1.00;;;;;;5099320;28;20112;-64
2023/06/02 00:57:34;;;;;;;6.03;2.53;;;14.80;1.00;;;;;;5098472;28;20304;-64
2023/06/02 01:00:05;;;;;;;6.70;2.20;;;14.80;1.00;;;;;;5098538;28;20032;-64
2023/06/02 01:02:31;;;;;;;7.75;3.10;;;14.80;1.00;;;;;;5098488;28;20028;-64
2023/06/02 01:04:57;;;;;;;9.40;2.60;;;14.80;1.00;;;;;;5098507;28;20028;-64
2023/06/02 01:07:25;;;;;;;7.05;2.80;;;14.60;1.00;;;;;;5098994;28;20028;-65
2023/06/02 01:09:59;;;;;;;7.70;2.33;;;14.70;1.00;;;;;;5098406;28;20327;-63
2023/06/02 01:12:26;;;;;;;7.85;2.55;;;14.70;1.00;;;;;;5099024;28;20020;-63
2023/06/02 01:14:53;;;;;;;11.23;2.60;;;14.70;1.00;;;;;;5098370;28;20039;-63
2023/06/02 01:17:19;;;;;;;12.27;2.58;;;14.80;1.00;;;;;;5098282;28;20311;-63
2023/06/02 01:19:49;;;;;;;8.55;2.30;;;14.70;1.00;;;;;;5099436;28;20292;-63
2023/06/02 01:22:23;;;;;;;8.63;2.13;;;14.60;1.00;;;;;;5098791;28;20023;-63
2023/06/02 01:24:50;;;;;;;10.10;2.67;;;14.60;1.00;;;;;;5098095;28;20024;-64
2023/06/02 01:27:16;;;;;;;6.68;2.30;;;14.50;1.00;;;;;;5097834;28;20032;-64
2023/06/02 01:29:44;;;;;;;9.68;2.67;;;14.50;1.00;;;;;;5081144;28;20056;-64
2023/06/02 01:32:23;;;;;;;6.60;2.28;;;14.40;1.00;;;;;;5098664;28;20107;-64
2023/06/02 01:34:53;;;;;;;8.25;2.72;;;14.40;1.00;;;;;;5098684;28;20024;-64
2023/06/02 01:37:21;;;;;;;8.18;2.60;;;14.40;1.00;;;;;;5097796;28;20032;-64
2023/06/02 01:39:49;;;;;;;9.48;2.58;;;14.40;1.00;;;;;;5097659;28;20059;-64
2023/06/02 01:42:15;;;;;;;8.93;2.60;;;14.40;1.00;;;;;;5080910;28;20024;-64
2023/06/02 01:44:42;;;;;;;11.48;2.75;;;14.40;1.00;;;;;;5081089;28;20326;-65
2023/06/02 01:47:09;;;;;;;7.45;2.40;;;14.40;1.00;;;;;;5080977;28;20093;-64
2023/06/02 01:49:35;;;;;;;7.43;2.60;;;14.40;1.00;;;;;;5097948;28;20020;-64
2023/06/02 01:52:02;;;;;;;6.47;2.50;;;14.40;1.00;;;;;;5080781;28;20115;-64
2023/06/02 01:54:28;;;;;;;6.53;2.30;;;14.40;1.00;;;;;;5063283;28;20055;-64
2023/06/02 01:56:54;;;;;;;7.05;2.53;;;14.50;1.00;;;;;;5080566;28;20291;-64
2023/06/02 01:59:20;;;;;;;7.25;2.72;;;14.40;1.00;;;;;;5080665;28;20043;-64
2023/06/02 02:01:47;;;;;;;14.20;3.05;;;14.40;1.00;;;;;;5080595;28;20421;-64
2023/06/02 02:04:12;;;;;;;10.43;2.70;;;14.40;1.00;;;;;;5098099;28;20046;-64
2023/06/02 02:06:39;;;;;;;8.00;2.33;;;14.40;1.00;;;;;;5080829;28;20043;-64
2023/06/02 02:09:07;;;;;;;7.55;2.35;;;14.30;1.00;;;;;;5097587;28;20034;-64
2023/06/02 02:11:34;;;;;;;11.45;2.92;;;14.10;1.00;;;;;;5098202;28;20040;-65
2023/06/02 02:14:04;;;;;;;13.00;2.08;;;14.00;1.00;;;;;;5097444;28;20043;-63
2023/06/02 02:16:31;;;;;;;6.88;2.05;;;14.00;1.00;;;;;;5097094;28;20307;-64
2023/06/02 02:18:58;;;;;;;10.93;2.42;;;14.00;1.00;;;;;;5097866;28;20028;-64
2023/06/02 02:21:25;;;;;;;9.13;2.35;;;13.80;1.00;;;;;;5097329;28;20032;-64
2023/06/02 02:23:52;;;;;;;8.07;2.50;;;13.90;1.00;;;;;;5097684;28;20040;-64
2023/06/02 02:26:18;;;;;;;5.43;1.98;;;14.00;1.00;;;;;;5063434;28;20035;-65
2023/06/02 02:28:45;;;;;;;11.52;2.33;;;13.90;1.00;;;;;;5096780;28;20028;-65
2023/06/02 02:31:11;;;;;;;7.97;2.47;;;13.80;1.00;;;;;;5097607;28;20039;-64
2023/06/02 02:33:38;;;;;;;7.05;2.25;;;13.70;1.00;;;;;;5080116;28;20206;-65
2023/06/02 02:36:04;;;;;;;7.95;2.40;;;13.80;1.00;;;;;;5079856;28;20028;-65
2023/06/02 02:38:33;;;;;;;9.52;2.63;;;13.80;1.00;;;;;;5096458;28;20374;-64
2023/06/02 02:41:00;;;;;;;8.98;2.03;;;13.80;1.00;;;;;;5079781;28;20311;-64
2023/06/02 02:43:26;;;;;;;7.35;2.40;;;13.80;1.00;;;;;;5097571;28;20392;-64
2023/06/02 02:45:52;;;;;;;7.00;2.25;;;13.80;1.00;;;;;;5097341;28;20304;-64
2023/06/02 02:48:18;;;;;;;10.38;2.35;;;13.90;1.00;;;;;;5097279;28;20032;-64
2023/06/02 02:50:44;;;;;;;11.82;2.85;;;13.90;1.00;;;;;;5079699;28;20032;-64
2023/06/02 02:53:11;;;;;;;12.40;2.70;;;13.90;1.00;;;;;;5079702;28;20028;-64
2023/06/02 02:55:38;;;;;;;8.30;2.20;;;13.80;1.00;;;;;;5097163;28;20051;-64
2023/06/02 02:58:04;;;;;;;12.07;2.42;;;13.80;1.00;;;;;;5079695;28;20032;-64
2023/06/02 03:00:31;;;;;;;10.35;2.50;;;13.80;1.00;;;;;;5096797;28;20303;-64
2023/06/02 03:03:01;;;;;;;7.80;2.10;;;13.70;1.00;;;;;;5096294;28;20036;-65
2023/06/02 03:05:27;;;;;;;9.07;2.67;;;13.80;1.00;;;;;;5096100;28;20118;-64
2023/06/02 03:07:54;;;;;;;8.88;2.47;;;13.80;1.00;;;;;;5079403;28;20026;-65
2023/06/02 03:10:20;;;;;;;12.65;2.42;;;13.80;1.00;;;;;;5079555;28;20024;-65
2023/06/02 03:12:48;;;;;;;7.38;2.30;;;13.80;1.00;;;;;;5097032;28;20040;-65
2023/06/02 03:15:15;;;;;;;8.20;2.13;;;13.90;1.00;;;;;;5096230;28;20367;-64
2023/06/02 03:17:41;;;;;;;6.55;2.05;;;14.00;1.00;;;;;;5096179;28;20075;-64
2023/06/02 03:20:09;;;;;;;8.45;2.70;;;14.00;1.00;;;;;;5062821;28;20063;-65
2023/06/02 03:22:35;;;;;;;8.07;2.20;;;13.90;1.00;;;;;;5096926;28;20417;-64
2023/06/02 03:25:02;;;;;;;12.05;2.67;;;14.00;1.00;;;;;;5063041;28;20028;-64
2023/06/02 03:27:29;;;;;;;8.77;2.60;;;14.10;1.00;;;;;;5096130;28;20038;-65
2023/06/02 03:29:56;;;;;;;13.20;3.60;;;13.90;1.00;;;;;;5062958;28;20382;-64
2023/06/02 03:32:27;;;;;;;9.40;2.83;;;14.00;1.00;;;;;;5096092;28;20028;-64
2023/06/02 03:34:53;;;;;;;9.95;2.90;;;14.00;1.00;;;;;;5096052;28;20082;-66
2023/06/02 03:37:19;;;;;;;9.10;3.20;;;14.00;1.00;;;;;;5079359;28;20028;-65
2023/06/02 03:39:47;;;;;;;6.80;2.63;;;13.90;1.00;;;;;;5079370;28;20077;-65
2023/06/02 03:42:13;;;;;;;8.60;2.90;;;13.70;1.00;;;;;;5079333;28;20036;-65
2023/06/02 03:44:39;;;;;;;13.23;3.67;;;13.70;1.00;;;;;;5096102;28;20032;-64
2023/06/02 03:47:05;;;;;;;8.20;2.65;;;13.80;1.00;;;;;;5062430;28;20043;-65
2023/06/02 03:49:31;;;;;;;9.20;2.80;;;13.80;1.00;;;;;;5079218;28;20031;-65
2023/06/02 03:52:00;;;;;;;8.63;2.70;;;13.80;1.00;;;;;;5063136;28;20032;-64
2023/06/02 03:54:27;;;;;;;11.07;2.95;;;14.00;1.00;;;;;;5062463;28;20025;-64
2023/06/02 03:56:53;;;;;;;10.75;3.15;;;13.90;1.00;;;;;;5045653;28;20119;-64
2023/06/02 03:59:18;;;;;;;15.00;3.20;;;13.80;1.00;;;;;;5095713;28;20030;-64
2023/06/02 04:01:44;;;;;;;11.25;3.25;;;13.80;1.00;;;;;;5095742;28;20043;-64
2023/06/02 04:04:11;;;;;;;10.40;2.75;;;13.80;1.00;;;;;;5095659;28;20349;-63
2023/06/02 04:06:41;;;;;;;12.02;3.25;;;13.70;1.00;;;;;;5097066;28;20043;-64
2023/06/02 04:09:12;;;;;;;9.02;2.67;;;13.80;1.00;;;;;;5095609;28;20028;-64
2023/06/02 04:11:40;;;;;;;10.25;3.00;;;13.90;1.00;;;;;;5079283;28;20051;-64
2023/06/02 04:14:07;;;;;;;9.90;2.97;;;13.80;1.00;;;;;;5095588;28;20115;-64
2023/06/02 04:16:33;;;;;;;12.05;2.95;;;13.80;1.00;;;;;;5096017;28;20027;-64
2023/06/02 04:19:00;;;;;;;9.57;2.83;;;13.70;1.00;;;;;;5065989;28;20047;-64
2023/06/02 04:21:27;;;;;;;12.57;3.35;;;13.80;1.00;;;;;;5082602;28;20427;-64
2023/06/02 04:23:53;;;;;;;16.98;3.35;;;13.80;1.00;;;;;;5082204;28;20164;-64
2023/06/02 04:26:19;;;;;;;9.88;2.92;;;13.90;1.00;;;;;;5099187;28;20127;-65
2023/06/02 04:28:45;;;;;;;13.30;2.90;;;13.90;1.00;;;;;;5082263;28;20337;-64
2023/06/02 04:31:11;;;;;;;11.93;2.92;;;13.80;1.00;;;;;;5082206;28;20036;-64
2023/06/02 04:33:42;;;;;;;10.52;2.72;;;13.80;1.00;;;;;;5082973;28;20028;-64
2023/06/02 04:36:10;;;;;;;10.63;2.90;;;13.90;1.00;;;;;;5082415;28;20300;-64
2023/06/02 04:38:37;;;;;;;9.00;2.60;;;13.80;1.00;;;;;;5098689;28;20048;-64
2023/06/02 04:41:06;;;;;;;10.23;2.65;;;13.80;1.00;;;;;;5065701;28;20032;-64
2023/06/02 04:43:34;;;;;;;12.63;3.38;;;13.80;1.00;;;;;;5082263;28;20039;-64
2023/06/02 04:46:01;;;;;;;11.00;2.95;;;13.70;1.00;;;;;;5099473;28;20110;-64
2023/06/02 04:48:28;;;;;;;10.57;3.60;;;13.80;1.00;;;;;;5098557;28;20318;-64
2023/06/02 04:50:54;;;;;;;8.60;2.92;;;13.70;1.00;;;;;;5099491;28;20032;-64
2023/06/02 04:53:20;;;;;;;7.97;2.97;;;13.80;1.00;;;;;;5098648;28;20031;-64
2023/06/02 04:55:47;;;;;;;12.35;3.30;;;13.70;1.00;;;;;;5098568;28;20109;-63
2023/06/02 04:58:14;;;;;;;7.85;3.03;;;13.60;1.00;;;;;;5065450;28;20032;-64
2023/06/02 05:00:40;;;;;;;7.32;3.08;;;13.60;1.00;;;;;;5099225;28;20028;-64
2023/06/02 05:03:07;;;;;;;10.98;3.10;;;13.70;1.00;;;;;;5081665;28;20056;-64
2023/06/02 05:05:33;;;;;;;9.25;3.08;;;13.70;1.00;;;;;;5098284;28;20053;-64
2023/06/02 05:07:59;;;;;;;8.18;3.15;;;13.70;1.00;;;;;;5098246;28;20144;-64
2023/06/02 05:10:25;;;;;;;9.13;2.97;;;13.60;1.00;;;;;;5099093;28;20043;-64
2023/06/02 05:12:53;;;;;;;8.82;3.53;;;13.70;1.00;;;;;;5098186;28;20119;-65
2023/06/02 05:15:19;;;;;;;9.63;3.15;;;13.70;1.00;;;;;;5081488;28;20417;-65
2023/06/02 05:17:46;;;;;;;13.88;3.50;;;13.60;1.00;;;;;;5098909;28;20413;-64
2023/06/02 05:20:14;;;;;;;11.57;3.35;;;13.70;1.00;;;;;;5081548;28;20032;-64
2023/06/02 05:22:40;;;;;;;10.10;3.28;;;13.70;1.00;;;;;;5098101;28;20024;-64
2023/06/02 05:25:08;;;;;;;9.65;3.10;;;13.70;1.00;;;;;;5098043;28;20086;-64
2023/06/02 05:27:34;;;;;;;10.07;3.13;;;13.50;1.00;;;;;;5097908;28;20311;-64
2023/06/02 05:30:00;;;;;;;13.80;3.15;;;13.70;1.00;;;;;;5098014;28;20028;-64
2023/06/02 05:32:26;;;;;;;13.40;3.72;;;13.90;1.00;;;;;;5081068;28;20046;-64
2023/06/02 05:34:54;;;;;;;12.43;3.50;;;13.70;1.00;;;;;;5097897;28;20035;-64
2023/06/02 05:37:20;;;;;;;8.60;3.38;;;13.90;1.00;;;;;;5098446;28;20387;-65
2023/06/02 05:39:47;;;;;;;12.85;3.40;;;14.00;1.00;;;;;;5097623;28;20052;-66
2023/06/02 05:42:27;;;;;;;8.38;3.30;;;14.10;1.00;;;;;;5074967;28;20503;-64
2023/06/02 05:44:53;;;;;;;11.32;3.38;;;14.00;1.00;;;;;;5073469;28;20028;-64
2023/06/02 05:47:19;;;;;;;12.00;3.17;;;13.90;1.00;;;;;;5056830;28;20052;-63
2023/06/02 05:49:46;;;;;;;13.07;3.58;;;13.90;1.00;;;;;;5056865;28;20029;-64
2023/06/02 05:52:12;;;;;;;11.88;3.03;;;14.00;1.00;;;;;;5073269;28;20402;-64
2023/06/02 05:54:38;;;;;;;10.80;3.72;;;13.90;1.00;;;;;;5073233;28;20056;-64
2023/06/02 05:57:04;;;;;;;11.52;2.90;;;13.80;1.00;;;;;;5073326;28;20388;-64
2023/06/02 05:59:31;;;;;;;12.05;3.38;;;13.80;1.00;;;;;;5056674;28;20033;-67
2023/06/02 06:01:57;;;;;;;8.98;3.20;;;13.90;1.00;;;;;;5056526;28;20102;-64
2023/06/02 06:04:23;;;;;;;8.18;3.10;;;13.90;1.00;;;;;;5056542;28;20301;-64
2023/06/02 06:06:49;;;;;;;9.88;3.65;;;14.10;1.00;;;;;;5039880;28;20040;-64
2023/06/02 06:09:15;;;;;;;11.50;3.65;;;14.10;1.00;;;;;;5072920;28;20044;-64
2023/06/02 06:11:42;;;;;;;9.70;3.50;;;14.20;1.00;;;;;;5073648;28;20028;-63
2023/06/02 06:14:08;;;;;;;9.48;3.58;;;14.20;1.00;;;;;;5072851;28;20032;-62
2023/06/02 06:16:37;;;;;;;7.95;3.75;;;14.20;1.00;;;;;;5040128;28;20323;-62
2023/06/02 06:19:03;;;;;;;10.05;4.30;;;14.30;1.00;;;;;;5072821;28;20243;-62
2023/06/02 06:21:29;;;;;;;10.30;3.72;;;14.40;1.00;;;;;;5073265;28;20131;-63
2023/06/02 06:23:55;;;;;;;13.88;3.47;;;14.30;1.00;;;;;;5072679;28;20286;-64
2023/06/02 06:26:22;;;;;;;6.93;2.88;;;14.60;1.00;;;;;;5072592;28;20124;-64
2023/06/02 06:28:49;;;;;;;9.43;3.13;;;14.30;1.00;;;;;;5056250;28;20063;-62
2023/06/02 06:31:15;;;;;;;10.50;3.28;;;14.60;1.00;;;;;;5072547;28;20033;-62
2023/06/02 06:33:41;;;;;;;6.63;2.78;;;14.70;1.00;;;;;;5056034;28;20067;-62
2023/06/02 06:36:10;;;;;;;12.13;3.03;;;14.60;1.00;;;;;;5055910;28;20098;-63
2023/06/02 06:38:36;;;;;;;7.43;2.65;;;14.40;1.00;;;;;;5072190;28;20043;-63
2023/06/02 06:41:02;;;;;;;8.13;2.60;;;14.50;1.00;;;;;;5072861;28;20049;-62
2023/06/02 06:43:28;;;;;;;6.82;2.20;;;14.60;1.00;;;;;;5055777;28;20028;-64
2023/06/02 06:46:02;;;;;;;5.93;2.00;;;14.80;1.00;;;;;;5088090;28;20025;-63
2023/06/02 06:48:28;;;;;;;11.05;2.45;;;15.10;1.00;;;;;;5072276;28;20458;-64
2023/06/02 06:50:54;;;;;;;7.18;2.50;;;15.30;1.00;;;;;;5055541;28;20040;-65
2023/06/02 06:53:20;;;;;;;9.75;2.78;;;15.50;1.00;;;;;;5061514;28;20029;-66
2023/06/02 06:55:47;;;;;;;9.65;2.47;;;15.40;99.90;;;;;;5025845;28;20388;-66
2023/06/02 06:58:13;;;;;;;8.48;2.38;;;14.90;1.00;;;;;;5058815;28;20028;-63
2023/06/02 07:00:39;;;;;;;9.27;2.60;;;14.60;1.00;;;;;;5059701;28;20041;-63
2023/06/02 07:03:05;;;;;;;6.53;2.42;;;14.70;1.00;;;;;;5058656;28;20037;-63
2023/06/02 07:05:30;;;;;;;5.97;2.55;;;14.90;1.00;;;;;;5058669;28;20037;-62
2023/06/02 07:07:57;;;;;;;6.45;2.50;;;14.80;1.00;;;;;;5042002;28;20033;-62
2023/06/02 07:10:22;;;;;;;8.55;3.10;;;14.70;1.00;;;;;;5058837;28;20047;-62
2023/06/02 07:12:48;;;;;;;8.52;2.90;;;14.90;1.00;;;;;;5058571;28;20040;-62
2023/06/02 07:15:15;;;;;;;12.43;2.88;;;15.00;1.00;;;;;;5059277;28;20304;-63
2023/06/02 07:17:41;;;;;;;7.80;3.00;;;14.90;1.00;;;;;;5041905;28;20052;-63
2023/06/02 07:20:12;;;;;;;8.63;2.90;;;14.90;1.00;;;;;;5041707;28;20342;-64
2023/06/02 07:22:38;;;;;;;9.52;2.70;;;14.90;1.00;;;;;;5059071;28;20116;-64
2023/06/02 07:25:05;;;;;;;7.05;2.67;;;14.90;1.00;;;;;;5058359;28;20041;-63
2023/06/02 07:27:32;;;;;;;5.40;1.83;;;14.80;1.00;;;;;;5058197;28;20040;-63
2023/06/02 07:29:59;;;;;;;5.38;2.58;;;15.10;1.00;;;;;;5058893;28;20028;-63
2023/06/02 07:32:25;;;;;;;11.13;2.92;;;15.30;99.90;;;;;;5041438;28;20033;-63
2023/06/02 07:34:51;;;;;;;8.10;2.85;;;15.40;99.90;;;;;;5057971;28;20048;-62
2023/06/02 07:37:17;;;;;;;9.65;3.10;;;15.40;99.90;;;;;;5058815;28;20320;-62
2023/06/02 07:39:43;;;;;;;17.63;2.92;;;15.40;99.90;;;;;;5058227;28;20044;-63
2023/06/02 07:42:09;;;;;;;11.40;3.28;;;15.30;99.90;;;;;;5058477;28;20053;-62
2023/06/02 07:44:34;;;;;;;10.02;2.78;;;15.40;99.90;;;;;;5057980;28;20451;-63
2023/06/02 07:47:00;;;;;;;12.07;2.47;;;15.60;99.90;;;;;;5075109;28;20029;-63
2023/06/02 07:49:26;;;;;;;9.85;2.20;;;15.80;99.90;;;;;;5057892;28;20040;-63
2023/06/02 07:51:52;;;;;;;7.07;2.22;;;15.90;44.70;;;;;;5058586;28;20025;-63
2023/06/02 07:54:18;;;;;;;5.28;1.58;;;16.00;1.00;;;;;;5058538;28;20090;-63
2023/06/02 07:56:43;;;;;;;9.75;2.47;;;16.30;1.00;;;;;;5041009;28;20102;-62
2023/06/02 07:59:11;;;;;;;10.23;2.63;;;16.20;1.00;;;;;;5040916;28;20067;-63
2023/06/02 08:01:38;;;;;;;7.32;2.00;;;16.50;1.00;;;;;;5057469;28;20033;-63
2023/06/02 08:04:04;;;;;;;9.85;2.45;;;16.70;1.00;;;;;;5056377;28;20082;-63
2023/06/02 08:06:30;;;;;;;11.25;2.35;;;16.50;1.00;;;;;;5041296;28;20412;-62
2023/06/02 08:08:58;;;;;;;6.20;1.95;;;16.60;1.00;;;;;;5057382;28;20029;-63
2023/06/02 08:11:24;;;;;;;8.48;2.17;;;16.70;99.90;;;;;;5057191;28;20393;-63
2023/06/02 08:13:50;;;;;;;6.97;2.50;;;16.40;1.00;;;;;;5057922;28;20041;-62
2023/06/02 08:16:16;;;;;;;14.05;2.72;;;16.40;99.90;;;;;;5040698;28;20039;-62
2023/06/02 08:18:42;;;;;;;12.45;2.28;;;16.30;1.00;;;;;;5040715;28;20091;-63
2023/06/02 08:21:08;;;;;;;12.15;2.35;;;16.60;99.90;;;;;;5040602;28;20075;-63
2023/06/02 08:23:34;;;;;;;13.20;2.63;;;16.40;99.90;;;;;;5057089;28;20072;-62
2023/06/02 08:26:00;;;;;;;11.57;2.25;;;16.30;1.00;;;;;;5057149;28;20090;-63
2023/06/02 08:28:29;;;;;;;13.82;2.67;;;16.60;99.90;;;;;;5040375;28;20021;-63
2023/06/02 08:30:58;;;;;;;5.82;1.90;;;16.60;94.30;;;;;;5040426;28;20029;-63
2023/06/02 08:33:24;;;;;;;9.77;2.22;;;16.10;99.90;;;;;;5057691;28;20036;-63
2023/06/02 08:35:52;;;;;;;8.45;2.08;;;16.00;1.00;;;;;;5056838;28;20071;-62
2023/06/02 08:38:18;;;;;;;5.30;1.92;;;16.10;1.00;;;;;;5057793;28;20347;-62
2023/06/02 08:40:46;;;;;;;8.43;1.95;;;16.30;1.00;;;;;;5056543;28;20350;-63
2023/06/02 08:43:13;;;;;;;6.20;2.45;;;16.70;1.00;;;;;;5056950;28;20099;-64
2023/06/02 08:45:41;;;;;;;9.10;2.17;;;16.90;99.90;;;;;;5056806;28;20091;-63
2023/06/02 08:48:11;;;;;;;11.52;2.30;;;17.20;1.00;;;;;;5057531;28;20036;-63
2023/06/02 08:50:40;;;;;;;12.27;2.35;;;17.00;99.90;;;;;;5056690;28;20040;-62
2023/06/02 08:53:11;;;;;;;9.32;2.28;;;16.90;99.90;;;;;;5057286;28;20079;-63
2023/06/02 08:55:40;;;;;;;6.28;2.00;;;17.30;1.00;;;;;;5056666;28;20024;-62
2023/06/02 08:58:08;;;;;;;7.90;2.10;;;17.60;1.00;;;;;;5040318;28;20166;-62
2023/06/02 09:00:34;;;;;;;7.68;2.17;;;17.60;1.00;;;;;;5057179;28;20310;-63
2023/06/02 09:02:59;;;;;;;7.10;2.00;;;18.00;99.90;;;;;;5057134;28;20041;-62
2023/06/02 09:05:28;;;;;;;8.82;2.85;;;18.20;1.00;;;;;;5056472;28;20300;-62
2023/06/02 09:08:14;;;;;;;7.50;2.25;;;18.00;1.00;;;;;;5057074;28;20114;-63
2023/06/02 09:10:41;;;;;;;7.93;2.10;;;18.40;99.90;;;;;;5056408;28;20044;-62
2023/06/02 09:13:07;;;;;;;11.05;2.30;;;18.50;1.00;;;;;;5056320;28;20025;-62
2023/06/02 09:15:35;;;;;;;12.25;2.55;;;18.60;1.00;;;;;;5056931;28;20052;-62
2023/06/02 09:18:14;;;;;;;11.10;2.75;;;18.80;99.90;;;;;;5056953;28;20037;-63
2023/06/02 09:20:40;;;;;;;8.57;2.60;;;18.90;10.50;;;;;;5056166;28;20324;-63
2023/06/02 09:23:06;;;;;;;10.82;2.63;;;19.10;1.00;;;;;;5039690;28;20044;-62
2023/06/02 09:25:34;;;;;;;11.88;2.70;;;19.10;1.00;;;;;;5039563;28;20033;-63
2023/06/02 09:28:01;;;;;;;10.77;2.72;;;18.90;99.90;;;;;;5056090;28;20056;-62
2023/06/02 09:30:28;;;;;;;14.20;3.03;;;18.40;99.90;;;;;;5056116;28;20033;-62
2023/06/02 09:32:59;;;;;;;11.88;3.10;;;18.50;1.00;;;;;;5056801;28;20025;-62
2023/06/02 09:35:36;;;;;;;12.38;2.65;;;18.60;1.00;;;;;;5056802;28;20067;-63
2023/06/02 09:38:07;;;;;;;12.18;2.58;;;18.20;1.00;;;;;;5039668;28;20401;-63
2023/06/02 09:40:37;;;;;;;6.93;2.28;;;18.70;1.00;;;;;;5056470;28;20052;-63
2023/06/02 09:43:04;;;;;;;9.27;2.45;;;18.90;1.00;;;;;;5039376;28;20300;-62
2023/06/02 09:45:31;;;;;;;8.85;2.58;;;18.70;1.00;;;;;;5056654;28;20392;-63
2023/06/02 09:47:57;;;;;;;9.23;2.58;;;18.90;1.00;;;;;;5055775;28;20408;-63
2023/06/02 09:50:38;;;;;;;11.00;2.63;;;19.50;1.00;;;;;;5039286;28;20103;-63
2023/06/02 09:53:10;;;;;;;10.98;3.10;;;19.70;1.00;;;;;;5055826;28;20025;-64
2023/06/02 09:55:37;;;;;;;12.98;3.10;;;19.70;99.90;;;;;;5056386;28;20071;-63
2023/06/02 09:58:07;;;;;;;13.57;2.97;;;19.50;1.00;;;;;;5055871;28;20029;-65
2023/06/02 10:00:37;;;;;;;9.88;2.45;;;19.70;99.90;;;;;;5056253;28;20470;-63
2023/06/02 10:03:04;;;;;;;10.82;2.67;;;20.10;1.00;;;;;;5055774;28;20030;-65
2023/06/02 10:05:31;;;;;;;6.43;2.17;;;20.10;1.00;;;;;;5056470;28;20025;-63
2023/06/02 10:08:18;;;;;;;11.27;3.00;;;20.50;1.00;;;;;;5055655;28;20412;-62
2023/06/02 10:11:06;;;;;;;6.85;2.35;;;20.50;76.80;;;;;;5056344;28;20025;-62
2023/06/02 10:13:54;;;;;;;8.10;2.28;;;20.50;1.00;;;;;;5055576;28;20040;-62
2023/06/02 10:16:43;;;;;;;8.82;2.65;;;20.70;1.00;;;;;;5055493;28;20095;-63
2023/06/02 10:19:09;;;;;;;8.05;2.22;;;20.80;1.00;;;;;;5055564;28;20417;-63
2023/06/02 10:22:01;;;;;;;6.47;2.60;;;20.90;1.00;;;;;;5056261;28;20133;-64
2023/06/02 10:24:46;;;;;;;6.63;2.45;;;21.10;1.00;;;;;;5055991;28;20029;-63
2023/06/02 10:27:32;;;;;;;6.88;2.03;;;21.10;1.00;;;;;;5056671;28;20037;-63
2023/06/02 10:29:58;;;;;;;9.93;2.50;;;20.70;99.90;;;;;;5060211;28;20032;-63
2023/06/02 10:32:33;;;;;;;9.45;2.78;;;20.10;1.00;;;;;;5059259;28;20033;-62
2023/06/02 10:35:00;;;;;;;9.85;2.60;;;19.90;1.00;;;;;;5060090;28;20036;-63
2023/06/02 10:37:27;;;;;;;11.43;2.88;;;19.80;1.00;;;;;;5060419;28;20033;-65
2023/06/02 10:39:56;;;;;;;9.82;2.60;;;19.90;1.00;;;;;;5042629;28;20102;-63
2023/06/02 10:42:24;;;;;;;10.98;3.00;;;20.50;1.00;;;;;;5058901;28;20046;-63
2023/06/02 10:44:54;;;;;;;7.35;2.53;;;20.60;1.00;;;;;;5059115;28;20032;-63
2023/06/02 10:47:20;;;;;;;9.40;2.70;;;21.00;99.90;;;;;;5059045;28;20029;-63
2023/06/02 10:49:53;;;;;;;12.20;2.75;;;21.30;99.90;;;;;;5059770;28;20094;-62
2023/06/02 10:52:20;;;;;;;8.15;2.28;;;20.50;99.90;;;;;;5059633;28;20036;-65
2023/06/02 10:55:10;;;;;;;10.20;3.00;;;20.80;1.00;;;;;;5042482;28;20041;-63
2023/06/02 10:57:55;;;;;;;10.63;2.72;;;21.20;99.90;;;;;;5042029;28;20413;-64
2023/06/02 11:00:35;;;;;;;6.72;3.00;;;20.70;55.30;;;;;;5058837;28;20273;-63
2023/06/02 11:03:20;;;;;;;9.07;2.97;;;21.00;99.90;;;;;;5059602;28;20037;-64
2023/06/02 11:05:49;;;;;;;8.10;2.65;;;21.80;1.00;;;;;;5042075;28;20025;-64
2023/06/02 11:08:18;;;;;;;7.82;2.85;;;22.90;1.00;;;;;;5041995;28;20026;-63
2023/06/02 11:11:03;;;;;;;12.82;2.70;;;23.30;99.90;;;;;;5058484;28;20039;-65
2023/06/02 11:13:29;;;;;;;6.80;2.28;;;24.00;99.90;;;;;;5058679;28;20044;-64
2023/06/02 11:15:55;;;;;;;9.52;2.80;;;23.40;99.90;;;;;;5058619;28;20281;-64
2023/06/02 11:18:33;;;;;;;8.35;2.53;;;23.80;96.00;;;;;;5058355;28;20032;-63
2023/06/02 11:21:02;;;;;;;7.45;2.80;;;24.90;1.00;;;;;;5058728;28;20044;-64
2023/06/02 11:23:28;;;;;;;9.15;3.03;;;25.10;1.00;;;;;;5041584;28;20460;-64
2023/06/02 11:26:06;;;;;;;10.05;2.53;;;26.30;1.00;;;;;;5058333;28;20137;-64
2023/06/02 11:28:32;;;;;;;5.60;2.53;;;27.60;1.00;;;;;;5059040;28;20120;-64
2023/06/02 11:31:11;;;;;;;16.83;3.33;;;27.40;99.90;;;;;;5058204;28;20060;-64
2023/06/02 11:33:41;;;;;;;9.43;2.85;;;27.60;99.90;;;;;;5058324;28;20061;-64
2023/06/02 11:36:12;;;;;;;11.18;2.65;;;25.70;99.90;;;;;;5041522;28;20033;-64
2023/06/02 11:38:39;;;;;;;9.73;2.97;;;26.90;99.90;;;;;;5058730;28;20040;-64
2023/06/02 11:41:13;;;;;;;7.60;2.60;;;27.90;99.90;;;;;;5041074;28;20065;-64
2023/06/02 11:43:41;;;;;;;8.73;2.78;;;28.50;99.90;;;;;;5057962;28;20369;-65
2023/06/02 11:46:16;;;;;;;5.82;2.40;;;29.80;99.90;;;;;;5058003;28;20037;-65
2023/06/02 11:48:43;;;;;;;8.90;2.88;;;30.40;99.90;;;;;;5057905;28;20040;-63
2023/06/02 11:51:13;;;;;;;6.88;2.63;;;31.00;99.90;;;;;;5057733;28;20107;-63
2023/06/02 11:53:45;;;;;;;8.70;2.92;;;31.50;99.90;;;;;;5058760;28;20112;-64
2023/06/02 11:56:15;;;;;;;7.88;2.80;;;31.30;99.90;;;;;;5058094;28;20041;-64
2023/06/02 11:58:41;;;;;;;7.05;2.50;;;31.90;99.90;;;;;;5041322;28;20040;-64
2023/06/02 12:01:14;;;;;;;9.52;2.92;;;31.80;92.90;;;;;;5058368;28;20040;-64
2023/06/02 12:03:40;;;;;;;9.15;2.90;;;32.10;72.90;;;;;;5057775;28;20029;-63
2023/06/02 12:06:13;;;;;;;5.93;2.92;;;31.70;54.00;;;;;;5058685;28;20037;-65
2023/06/02 12:08:40;;;;;;;9.35;3.05;;;31.10;54.40;;;;;;5057489;28;20037;-65
2023/06/02 12:11:25;;;;;;;8.70;2.80;;;31.60;45.50;;;;;;5057482;28;20097;-65
2023/06/02 12:14:05;;;;;;;6.88;2.95;;;30.90;42.30;;;;;;5041078;28;20045;-65
2023/06/02 12:16:31;;;;;;;9.20;3.20;;;30.60;45.50;;;;;;5040748;28;20033;-64
2023/06/02 12:19:16;;;;;;;8.85;3.20;;;30.30;43.50;;;;;;5040701;28;20033;-65
2023/06/02 12:21:43;;;;;;;8.82;3.15;;;30.80;43.90;;;;;;5040493;28;20343;-65
2023/06/02 12:24:10;;;;;;;8.27;2.97;;;30.00;33.30;;;;;;5057117;28;20029;-65
2023/06/02 12:26:44;;;;;;;7.55;2.92;;;29.70;38.10;;;;;;5057303;28;20037;-65
2023/06/02 12:29:10;;;;;;;8.52;3.42;;;29.00;37.10;;;;;;5057135;28;20033;-66
2023/06/02 12:31:37;;;;;;;7.18;2.88;;;28.90;43.20;;;;;;5057919;28;20036;-64
2023/06/02 12:34:06;;;;;;;10.50;3.38;;;28.30;55.10;;;;;;5057726;28;20029;-65
2023/06/02 12:36:32;;;;;;;8.48;2.80;;;28.90;57.80;;;;;;5057629;28;20040;-64
2023/06/02 12:39:00;;;;;;;10.30;2.70;;;30.30;47.80;;;;;;5056813;28;20053;-65
2023/06/02 12:41:26;;;;;;;7.80;3.20;;;30.90;40.90;;;;;;5073076;28;20107;-65
2023/06/02 12:43:52;;;;;;;14.85;3.03;;;31.80;28.20;;;;;;5056814;28;20056;-65
2023/06/02 12:46:18;;;;;;;8.65;3.20;;;32.70;25.30;;;;;;5057523;28;20329;-64
2023/06/02 12:48:44;;;;;;;7.13;2.92;;;33.10;13.90;;;;;;5057477;28;20132;-64
2023/06/02 12:51:10;;;;;;;8.80;2.90;;;33.40;3.80;;;;;;5056626;28;20040;-65
2023/06/02 12:53:36;;;;;;;11.15;3.10;;;33.60;2.50;;;;;;5057484;28;20055;-65
2023/06/02 12:56:03;;;;;;;5.93;2.50;;;33.30;1.00;;;;;;5057261;28;20029;-66